sensor_id;sensor_type;location;lat;lon;timestamp;P1;durP1;ratioP1;P2;durP2;ratioP2
2111;SDS011;1062;52.538;13.400;2023-07-20T00:01:23;5.60;;;5.03;;
2111;SDS011;1062;52.538;13.400;2023-07-20T00:03:49;4.43;;;4.03;;
2111;SDS011;1062;52.538;13.400;2023-07-20T00:06:19;7.17;;;5.07;;
2111;SDS011;1062;52.538;13.400;2023-07-20T00:08:54;5.53;;;5.03;;
2111;SDS011;1062;52.538;13.400;2023-07-20T00:11:21;5.23;;;4.73;;
2111;SDS011;1062;52.538;13.400;2023-07-20T00:13:50;5.57;;;4.87;;
2111;SDS011;1062;52.538;13.400;2023-07-20T00:16:16;4.60;;;4.30;;
2111;SDS011;1062;52.538;13.400;2023-07-20T00:18:42;5.40;;;4.90;;
2111;SDS011;1062;52.538;13.400;2023-07-20T00:21:07;6.00;;;5.40;;
2111;SDS011;1062;52.538;13.400;2023-07-20T00:23:34;5.40;;;4.87;;
2111;SDS011;1062;52.538;13.400;2023-07-20T00:26:00;5.60;;;4.57;;
2111;SDS011;1062;52.538;13.400;2023-07-20T00:28:25;4.77;;;4.37;;
2111;SDS011;1062;52.538;13.400;2023-07-20T00:30:51;6.23;;;4.60;;
2111;SDS011;1062;52.538;13.400;2023-07-20T00:33:17;5.23;;;4.80;;
2111;SDS011;1062;52.538;13.400;2023-07-20T00:35:43;4.90;;;4.50;;
2111;SDS011;1062;52.538;13.400;2023-07-20T00:38:09;5.53;;;4.40;;
2111;SDS011;1062;52.538;13.400;2023-07-20T00:40:38;7.63;;;5.17;;
2111;SDS011;1062;52.538;13.400;2023-07-20T00:43:04;6.07;;;5.47;;
2111;SDS011;1062;52.538;13.400;2023-07-20T00:45:30;6.80;;;5.63;;
2111;SDS011;1062;52.538;13.400;2023-07-20T00:47:57;6.10;;;4.73;;
2111;SDS011;1062;52.538;13.400;2023-07-20T00:50:26;5.87;;;5.47;;
2111;SDS011;1062;52.538;13.400;2023-07-20T00:52:54;6.80;;;6.20;;
2111;SDS011;1062;52.538;13.400;2023-07-20T00:55:20;6.17;;;5.40;;
2111;SDS011;1062;52.538;13.400;2023-07-20T00:57:47;6.93;;;6.20;;
2111;SDS011;1062;52.538;13.400;2023-07-20T01:00:13;9.00;;;6.30;;
2111;SDS011;1062;52.538;13.400;2023-07-20T01:02:39;6.10;;;5.60;;
2111;SDS011;1062;52.538;13.400;2023-07-20T01:05:05;6.43;;;5.93;;
2111;SDS011;1062;52.538;13.400;2023-07-20T01:07:35;6.90;;;6.30;;
2111;SDS011;1062;52.538;13.400;2023-07-20T01:10:10;7.10;;;5.73;;
2111;SDS011;1062;52.538;13.400;2023-07-20T01:12:56;7.47;;;6.77;;
2111;SDS011;1062;52.538;13.400;2023-07-20T01:15:22;8.00;;;5.53;;
2111;SDS011;1062;52.538;13.400;2023-07-20T01:17:48;6.60;;;6.10;;
2111;SDS011;1062;52.538;13.400;2023-07-20T01:20:14;8.13;;;7.43;;
2111;SDS011;1062;52.538;13.400;2023-07-20T01:31:23;6.60;;;5.57;;
2111;SDS011;1062;52.538;13.400;2023-07-20T01:33:50;7.33;;;5.33;;
2111;SDS011;1062;52.538;13.400;2023-07-20T01:36:19;7.73;;;7.03;;
2111;SDS011;1062;52.538;13.400;2023-07-20T01:38:46;5.73;;;5.20;;
2111;SDS011;1062;52.538;13.400;2023-07-20T01:41:12;6.20;;;5.60;;
2111;SDS011;1062;52.538;13.400;2023-07-20T01:43:39;7.27;;;6.60;;
2111;SDS011;1062;52.538;13.400;2023-07-20T01:46:05;5.63;;;5.03;;
2111;SDS011;1062;52.538;13.400;2023-07-20T01:48:31;6.07;;;5.57;;
2111;SDS011;1062;52.538;13.400;2023-07-20T01:50:56;7.10;;;5.90;;
2111;SDS011;1062;52.538;13.400;2023-07-20T01:53:22;7.00;;;6.40;;
2111;SDS011;1062;52.538;13.400;2023-07-20T01:55:48;6.17;;;5.57;;
2111;SDS011;1062;52.538;13.400;2023-07-20T01:58:13;5.70;;;5.30;;
2111;SDS011;1062;52.538;13.400;2023-07-20T02:00:39;6.53;;;6.00;;
2111;SDS011;1062;52.538;13.400;2023-07-20T02:03:04;8.97;;;6.23;;
2111;SDS011;1062;52.538;13.400;2023-07-20T02:05:30;12.03;;;7.27;;
2111;SDS011;1062;52.538;13.400;2023-07-20T02:07:56;6.93;;;6.33;;
2111;SDS011;1062;52.538;13.400;2023-07-20T02:10:21;6.37;;;5.87;;
2111;SDS011;1062;52.538;13.400;2023-07-20T02:12:47;6.40;;;5.90;;
2111;SDS011;1062;52.538;13.400;2023-07-20T02:15:13;8.93;;;5.73;;
2111;SDS011;1062;52.538;13.400;2023-07-20T02:17:41;6.60;;;6.00;;
2111;SDS011;1062;52.538;13.400;2023-07-20T02:20:07;6.83;;;6.20;;
2111;SDS011;1062;52.538;13.400;2023-07-20T02:22:35;6.60;;;6.00;;
2111;SDS011;1062;52.538;13.400;2023-07-20T02:25:02;6.93;;;6.30;;
2111;SDS011;1062;52.538;13.400;2023-07-20T02:27:32;9.30;;;7.30;;
2111;SDS011;1062;52.538;13.400;2023-07-20T02:30:00;7.63;;;6.90;;
2111;SDS011;1062;52.538;13.400;2023-07-20T02:32:27;9.23;;;8.33;;
2111;SDS011;1062;52.538;13.400;2023-07-20T02:34:53;12.90;;;8.80;;
2111;SDS011;1062;52.538;13.400;2023-07-20T02:37:19;9.00;;;8.20;;
2111;SDS011;1062;52.538;13.400;2023-07-20T02:39:44;12.80;;;10.13;;
2111;SDS011;1062;52.538;13.400;2023-07-20T02:42:10;10.50;;;9.50;;
2111;SDS011;1062;52.538;13.400;2023-07-20T02:44:36;11.50;;;10.40;;
2111;SDS011;1062;52.538;13.400;2023-07-20T02:47:01;10.40;;;8.80;;
2111;SDS011;1062;52.538;13.400;2023-07-20T02:49:27;14.63;;;10.30;;
2111;SDS011;1062;52.538;13.400;2023-07-20T02:51:53;10.07;;;9.07;;
2111;SDS011;1062;52.538;13.400;2023-07-20T02:54:19;12.00;;;10.90;;
2111;SDS011;1062;52.538;13.400;2023-07-20T02:56:44;10.00;;;9.10;;
2111;SDS011;1062;52.538;13.400;2023-07-20T02:59:10;10.00;;;9.00;;
2111;SDS011;1062;52.538;13.400;2023-07-20T03:01:36;10.50;;;9.57;;
2111;SDS011;1062;52.538;13.400;2023-07-20T03:04:01;10.37;;;9.50;;
2111;SDS011;1062;52.538;13.400;2023-07-20T03:06:27;10.73;;;9.67;;
2111;SDS011;1062;52.538;13.400;2023-07-20T03:08:53;10.00;;;9.20;;
2111;SDS011;1062;52.538;13.400;2023-07-20T03:11:19;10.20;;;9.30;;
2111;SDS011;1062;52.538;13.400;2023-07-20T03:13:45;10.30;;;9.30;;
2111;SDS011;1062;52.538;13.400;2023-07-20T03:16:12;11.07;;;9.97;;
2111;SDS011;1062;52.538;13.400;2023-07-20T03:18:41;10.80;;;9.67;;
2111;SDS011;1062;52.538;13.400;2023-07-20T03:21:07;15.87;;;11.77;;
2111;SDS011;1062;52.538;13.400;2023-07-20T03:23:34;11.83;;;10.73;;
2111;SDS011;1062;52.538;13.400;2023-07-20T03:26:02;11.03;;;9.60;;
2111;SDS011;1062;52.538;13.400;2023-07-20T03:28:28;10.90;;;9.80;;
2111;SDS011;1062;52.538;13.400;2023-07-20T03:30:57;10.73;;;9.70;;
2111;SDS011;1062;52.538;13.400;2023-07-20T03:33:26;12.97;;;11.63;;
2111;SDS011;1062;52.538;13.400;2023-07-20T03:35:53;11.00;;;9.67;;
2111;SDS011;1062;52.538;13.400;2023-07-20T03:38:19;12.60;;;11.20;;
2111;SDS011;1062;52.538;13.400;2023-07-20T03:40:49;12.67;;;9.50;;
2111;SDS011;1062;52.538;13.400;2023-07-20T03:43:15;11.50;;;10.43;;
2111;SDS011;1062;52.538;13.400;2023-07-20T03:45:40;12.13;;;10.30;;
2111;SDS011;1062;52.538;13.400;2023-07-20T03:48:06;10.37;;;9.20;;
2111;SDS011;1062;52.538;13.400;2023-07-20T03:50:31;10.60;;;9.20;;
2111;SDS011;1062;52.538;13.400;2023-07-20T03:52:58;11.97;;;10.10;;
2111;SDS011;1062;52.538;13.400;2023-07-20T03:55:23;9.63;;;8.63;;
2111;SDS011;1062;52.538;13.400;2023-07-20T03:57:49;13.60;;;9.10;;
2111;SDS011;1062;52.538;13.400;2023-07-20T04:00:16;10.13;;;9.13;;
2111;SDS011;1062;52.538;13.400;2023-07-20T04:02:42;10.20;;;8.20;;
2111;SDS011;1062;52.538;13.400;2023-07-20T04:05:08;9.63;;;8.73;;
2111;SDS011;1062;52.538;13.400;2023-07-20T04:07:33;10.90;;;9.70;;
2111;SDS011;1062;52.538;13.400;2023-07-20T04:09:59;9.40;;;8.50;;
2111;SDS011;1062;52.538;13.400;2023-07-20T04:12:24;10.87;;;9.77;;
2111;SDS011;1062;52.538;13.400;2023-07-20T04:14:50;11.83;;;10.60;;
2111;SDS011;1062;52.538;13.400;2023-07-20T04:17:16;10.47;;;9.43;;
2111;SDS011;1062;52.538;13.400;2023-07-20T04:19:43;12.57;;;9.93;;
2111;SDS011;1062;52.538;13.400;2023-07-20T04:22:08;10.63;;;9.63;;
2111;SDS011;1062;52.538;13.400;2023-07-20T04:24:34;11.60;;;10.50;;
2111;SDS011;1062;52.538;13.400;2023-07-20T04:26:59;13.73;;;8.77;;
2111;SDS011;1062;52.538;13.400;2023-07-20T04:29:25;10.07;;;9.07;;
2111;SDS011;1062;52.538;13.400;2023-07-20T04:31:50;11.53;;;9.00;;
2111;SDS011;1062;52.538;13.400;2023-07-20T04:34:16;9.23;;;8.33;;
2111;SDS011;1062;52.538;13.400;2023-07-20T04:36:41;9.90;;;8.90;;
2111;SDS011;1062;52.538;13.400;2023-07-20T04:39:07;8.67;;;7.87;;
2111;SDS011;1062;52.538;13.400;2023-07-20T04:41:34;9.83;;;8.80;;
2111;SDS011;1062;52.538;13.400;2023-07-20T04:44:00;8.97;;;8.07;;
2111;SDS011;1062;52.538;13.400;2023-07-20T04:46:26;10.13;;;9.23;;
2111;SDS011;1062;52.538;13.400;2023-07-20T04:48:54;8.73;;;7.93;;
2111;SDS011;1062;52.538;13.400;2023-07-20T04:51:20;9.43;;;8.63;;
2111;SDS011;1062;52.538;13.400;2023-07-20T04:53:48;9.50;;;8.60;;
2111;SDS011;1062;52.538;13.400;2023-07-20T04:56:14;12.23;;;9.00;;
2111;SDS011;1062;52.538;13.400;2023-07-20T04:58:39;9.27;;;8.40;;
2111;SDS011;1062;52.538;13.400;2023-07-20T05:01:05;9.00;;;8.17;;
2111;SDS011;1062;52.538;13.400;2023-07-20T05:03:31;9.07;;;8.27;;
2111;SDS011;1062;52.538;13.400;2023-07-20T05:05:56;9.63;;;7.30;;
2111;SDS011;1062;52.538;13.400;2023-07-20T05:08:22;9.93;;;8.77;;
2111;SDS011;1062;52.538;13.400;2023-07-20T05:10:48;8.53;;;7.83;;
2111;SDS011;1062;52.538;13.400;2023-07-20T05:13:13;7.20;;;6.60;;
2111;SDS011;1062;52.538;13.400;2023-07-20T05:15:39;8.13;;;6.87;;
2111;SDS011;1062;52.538;13.400;2023-07-20T05:18:05;6.67;;;6.10;;
2111;SDS011;1062;52.538;13.400;2023-07-20T05:20:31;7.13;;;6.53;;
2111;SDS011;1062;52.538;13.400;2023-07-20T05:22:58;6.10;;;5.53;;
2111;SDS011;1062;52.538;13.400;2023-07-20T05:25:24;7.73;;;7.00;;
2111;SDS011;1062;52.538;13.400;2023-07-20T05:27:49;9.33;;;6.33;;
2111;SDS011;1062;52.538;13.400;2023-07-20T05:30:15;7.40;;;6.60;;
2111;SDS011;1062;52.538;13.400;2023-07-20T05:32:41;7.00;;;6.40;;
2111;SDS011;1062;52.538;13.400;2023-07-20T05:35:07;7.30;;;6.60;;
2111;SDS011;1062;52.538;13.400;2023-07-20T05:37:33;6.67;;;5.60;;
2111;SDS011;1062;52.538;13.400;2023-07-20T05:39:59;5.53;;;5.03;;
2111;SDS011;1062;52.538;13.400;2023-07-20T05:42:25;4.87;;;4.47;;
2111;SDS011;1062;52.538;13.400;2023-07-20T05:44:50;6.17;;;5.70;;
2111;SDS011;1062;52.538;13.400;2023-07-20T05:47:17;5.90;;;5.43;;
2111;SDS011;1062;52.538;13.400;2023-07-20T05:49:43;5.07;;;4.67;;
2111;SDS011;1062;52.538;13.400;2023-07-20T05:52:09;5.50;;;5.00;;
2111;SDS011;1062;52.538;13.400;2023-07-20T05:54:34;5.47;;;4.77;;
2111;SDS011;1062;52.538;13.400;2023-07-20T05:57:00;4.33;;;4.00;;
2111;SDS011;1062;52.538;13.400;2023-07-20T05:59:26;5.83;;;5.27;;
2111;SDS011;1062;52.538;13.400;2023-07-20T06:01:54;5.90;;;5.30;;
2111;SDS011;1062;52.538;13.400;2023-07-20T06:04:20;6.07;;;5.57;;
2111;SDS011;1062;52.538;13.400;2023-07-20T06:06:45;4.77;;;4.40;;
2111;SDS011;1062;52.538;13.400;2023-07-20T06:09:11;5.70;;;5.20;;
2111;SDS011;1062;52.538;13.400;2023-07-20T06:11:37;5.00;;;4.63;;
2111;SDS011;1062;52.538;13.400;2023-07-20T06:14:03;7.47;;;5.10;;
2111;SDS011;1062;52.538;13.400;2023-07-20T06:16:29;6.57;;;6.07;;
2111;SDS011;1062;52.538;13.400;2023-07-20T06:18:55;5.70;;;5.30;;
2111;SDS011;1062;52.538;13.400;2023-07-20T06:21:21;6.60;;;4.90;;
2111;SDS011;1062;52.538;13.400;2023-07-20T06:23:47;6.73;;;5.73;;
2111;SDS011;1062;52.538;13.400;2023-07-20T06:26:12;5.77;;;5.27;;
2111;SDS011;1062;52.538;13.400;2023-07-20T06:28:38;5.40;;;4.90;;
2111;SDS011;1062;52.538;13.400;2023-07-20T06:31:03;6.57;;;4.50;;
2111;SDS011;1062;52.538;13.400;2023-07-20T06:33:29;5.43;;;5.03;;
2111;SDS011;1062;52.538;13.400;2023-07-20T06:35:55;4.83;;;4.43;;
2111;SDS011;1062;52.538;13.400;2023-07-20T06:38:22;8.40;;;4.97;;
2111;SDS011;1062;52.538;13.400;2023-07-20T06:40:48;4.93;;;3.50;;
2111;SDS011;1062;52.538;13.400;2023-07-20T06:43:14;3.73;;;3.43;;
2111;SDS011;1062;52.538;13.400;2023-07-20T06:45:40;3.40;;;3.20;;
2111;SDS011;1062;52.538;13.400;2023-07-20T06:48:06;3.40;;;3.20;;
2111;SDS011;1062;52.538;13.400;2023-07-20T06:50:32;4.40;;;3.50;;
2111;SDS011;1062;52.538;13.400;2023-07-20T06:52:58;3.77;;;3.47;;
2111;SDS011;1062;52.538;13.400;2023-07-20T06:55:24;3.13;;;2.83;;
2111;SDS011;1062;52.538;13.400;2023-07-20T06:57:51;4.97;;;2.97;;
2111;SDS011;1062;52.538;13.400;2023-07-20T07:00:16;4.80;;;2.50;;
2111;SDS011;1062;52.538;13.400;2023-07-20T07:02:43;4.63;;;3.20;;
2111;SDS011;1062;52.538;13.400;2023-07-20T07:05:08;3.10;;;2.87;;
2111;SDS011;1062;52.538;13.400;2023-07-20T07:07:34;12.10;;;4.50;;
2111;SDS011;1062;52.538;13.400;2023-07-20T07:10:00;2.10;;;1.90;;
2111;SDS011;1062;52.538;13.400;2023-07-20T07:12:29;2.70;;;1.97;;
2111;SDS011;1062;52.538;13.400;2023-07-20T07:14:55;1.90;;;1.30;;
2111;SDS011;1062;52.538;13.400;2023-07-20T07:17:21;1.53;;;1.43;;
2111;SDS011;1062;52.538;13.400;2023-07-20T07:19:46;3.33;;;2.67;;
2111;SDS011;1062;52.538;13.400;2023-07-20T07:22:12;2.70;;;1.60;;
2111;SDS011;1062;52.538;13.400;2023-07-20T07:24:38;4.17;;;2.30;;
2111;SDS011;1062;52.538;13.400;2023-07-20T07:27:06;2.70;;;2.10;;
2111;SDS011;1062;52.538;13.400;2023-07-20T07:29:33;4.20;;;2.93;;
2111;SDS011;1062;52.538;13.400;2023-07-20T07:31:58;3.20;;;1.80;;
2111;SDS011;1062;52.538;13.400;2023-07-20T07:34:24;1.70;;;1.60;;
2111;SDS011;1062;52.538;13.400;2023-07-20T07:36:51;1.43;;;1.03;;
2111;SDS011;1062;52.538;13.400;2023-07-20T07:39:17;3.20;;;1.73;;
2111;SDS011;1062;52.538;13.400;2023-07-20T07:41:42;1.70;;;1.27;;
2111;SDS011;1062;52.538;13.400;2023-07-20T07:44:08;2.43;;;1.10;;
2111;SDS011;1062;52.538;13.400;2023-07-20T07:46:33;5.43;;;2.33;;
2111;SDS011;1062;52.538;13.400;2023-07-20T07:49:08;1.10;;;1.00;;
2111;SDS011;1062;52.538;13.400;2023-07-20T07:51:33;1.07;;;0.97;;
2111;SDS011;1062;52.538;13.400;2023-07-20T07:53:59;1.70;;;1.33;;
2111;SDS011;1062;52.538;13.400;2023-07-20T07:56:25;1.23;;;1.13;;
2111;SDS011;1062;52.538;13.400;2023-07-20T07:58:50;1.40;;;1.10;;
2111;SDS011;1062;52.538;13.400;2023-07-20T08:01:19;2.03;;;1.93;;
2111;SDS011;1062;52.538;13.400;2023-07-20T08:03:45;1.53;;;1.43;;
2111;SDS011;1062;52.538;13.400;2023-07-20T08:06:14;2.00;;;1.30;;
2111;SDS011;1062;52.538;13.400;2023-07-20T08:08:39;1.27;;;0.93;;
2111;SDS011;1062;52.538;13.400;2023-07-20T08:11:05;1.20;;;1.10;;
2111;SDS011;1062;52.538;13.400;2023-07-20T08:13:31;1.50;;;1.00;;
2111;SDS011;1062;52.538;13.400;2023-07-20T08:15:57;1.40;;;1.30;;
2111;SDS011;1062;52.538;13.400;2023-07-20T08:18:23;3.30;;;1.10;;
2111;SDS011;1062;52.538;13.400;2023-07-20T08:23:19;2.13;;;1.20;;
2111;SDS011;1062;52.538;13.400;2023-07-20T08:25:50;1.10;;;1.00;;
2111;SDS011;1062;52.538;13.400;2023-07-20T08:28:16;2.63;;;1.30;;
2111;SDS011;1062;52.538;13.400;2023-07-20T08:30:46;1.50;;;1.40;;
2111;SDS011;1062;52.538;13.400;2023-07-20T08:33:13;1.30;;;1.20;;
2111;SDS011;1062;52.538;13.400;2023-07-20T08:35:39;1.23;;;1.03;;
2111;SDS011;1062;52.538;13.400;2023-07-20T08:38:05;1.00;;;0.90;;
2111;SDS011;1062;52.538;13.400;2023-07-20T08:40:32;1.33;;;1.00;;
2111;SDS011;1062;52.538;13.400;2023-07-20T08:42:59;1.20;;;0.90;;
2111;SDS011;1062;52.538;13.400;2023-07-20T08:45:26;1.30;;;1.00;;
2111;SDS011;1062;52.538;13.400;2023-07-20T08:47:56;1.17;;;0.90;;
2111;SDS011;1062;52.538;13.400;2023-07-20T08:50:25;3.00;;;1.10;;
2111;SDS011;1062;52.538;13.400;2023-07-20T08:52:52;1.30;;;0.93;;
2111;SDS011;1062;52.538;13.400;2023-07-20T08:55:19;1.10;;;0.97;;
2111;SDS011;1062;52.538;13.400;2023-07-20T08:57:47;1.70;;;0.80;;
2111;SDS011;1062;52.538;13.400;2023-07-20T09:00:19;1.10;;;0.70;;
2111;SDS011;1062;52.538;13.400;2023-07-20T09:02:45;0.70;;;0.70;;
2111;SDS011;1062;52.538;13.400;2023-07-20T09:05:12;0.80;;;0.80;;
2111;SDS011;1062;52.538;13.400;2023-07-20T09:07:39;1.60;;;0.90;;
2111;SDS011;1062;52.538;13.400;2023-07-20T09:10:06;1.10;;;0.70;;
2111;SDS011;1062;52.538;13.400;2023-07-20T09:12:36;1.27;;;0.77;;
2111;SDS011;1062;52.538;13.400;2023-07-20T09:15:06;2.20;;;0.83;;
2111;SDS011;1062;52.538;13.400;2023-07-20T09:17:32;1.00;;;0.90;;
2111;SDS011;1062;52.538;13.400;2023-07-20T09:20:01;2.97;;;1.10;;
2111;SDS011;1062;52.538;13.400;2023-07-20T09:22:36;2.03;;;0.77;;
2111;SDS011;1062;52.538;13.400;2023-07-20T09:25:12;0.93;;;0.90;;
2111;SDS011;1062;52.538;13.400;2023-07-20T09:27:41;1.10;;;0.80;;
2111;SDS011;1062;52.538;13.400;2023-07-20T09:30:08;1.23;;;0.83;;
2111;SDS011;1062;52.538;13.400;2023-07-20T09:35:15;1.00;;;0.90;;
2111;SDS011;1062;52.538;13.400;2023-07-20T09:37:53;1.13;;;0.70;;
2111;SDS011;1062;52.538;13.400;2023-07-20T09:40:28;2.07;;;1.00;;
2111;SDS011;1062;52.538;13.400;2023-07-20T09:42:54;1.47;;;0.90;;
2111;SDS011;1062;52.538;13.400;2023-07-20T09:45:28;1.00;;;0.90;;
2111;SDS011;1062;52.538;13.400;2023-07-20T09:48:04;1.20;;;1.00;;
2111;SDS011;1062;52.538;13.400;2023-07-20T09:50:40;1.80;;;0.90;;
2111;SDS011;1062;52.538;13.400;2023-07-20T09:53:16;1.17;;;1.07;;
2111;SDS011;1062;52.538;13.400;2023-07-20T09:55:47;0.90;;;0.90;;
2111;SDS011;1062;52.538;13.400;2023-07-20T09:58:13;0.90;;;0.70;;
2111;SDS011;1062;52.538;13.400;2023-07-20T10:00:41;1.10;;;0.90;;
2111;SDS011;1062;52.538;13.400;2023-07-20T10:03:12;1.07;;;0.97;;
2111;SDS011;1062;52.538;13.400;2023-07-20T10:05:43;1.20;;;1.10;;
2111;SDS011;1062;52.538;13.400;2023-07-20T10:08:16;1.97;;;1.50;;
2111;SDS011;1062;52.538;13.400;2023-07-20T10:10:45;1.27;;;1.10;;
2111;SDS011;1062;52.538;13.400;2023-07-20T10:13:21;1.23;;;1.13;;
2111;SDS011;1062;52.538;13.400;2023-07-20T10:16:01;1.93;;;1.10;;
2111;SDS011;1062;52.538;13.400;2023-07-20T10:18:52;1.20;;;0.90;;
2111;SDS011;1062;52.538;13.400;2023-07-20T10:21:35;1.53;;;1.03;;
2111;SDS011;1062;52.538;13.400;2023-07-20T10:24:07;4.20;;;1.40;;
2111;SDS011;1062;52.538;13.400;2023-07-20T10:26:34;2.70;;;1.63;;
2111;SDS011;1062;52.538;13.400;2023-07-20T10:29:00;2.10;;;1.40;;
2111;SDS011;1062;52.538;13.400;2023-07-20T10:31:26;1.50;;;1.37;;
2111;SDS011;1062;52.538;13.400;2023-07-20T10:33:53;2.00;;;0.90;;
2111;SDS011;1062;52.538;13.400;2023-07-20T10:36:25;1.33;;;1.20;;
2111;SDS011;1062;52.538;13.400;2023-07-20T10:38:55;1.40;;;1.27;;
2111;SDS011;1062;52.538;13.400;2023-07-20T10:41:28;3.00;;;1.40;;
2111;SDS011;1062;52.538;13.400;2023-07-20T10:43:59;2.63;;;2.30;;
2111;SDS011;1062;52.538;13.400;2023-07-20T10:46:33;1.83;;;1.00;;
2111;SDS011;1062;52.538;13.400;2023-07-20T10:49:03;1.60;;;1.20;;
2111;SDS011;1062;52.538;13.400;2023-07-20T10:51:30;2.00;;;1.13;;
2111;SDS011;1062;52.538;13.400;2023-07-20T10:56:43;2.50;;;1.07;;
2111;SDS011;1062;52.538;13.400;2023-07-20T10:59:19;1.10;;;1.00;;
2111;SDS011;1062;52.538;13.400;2023-07-20T11:02:06;1.07;;;0.90;;
2111;SDS011;1062;52.538;13.400;2023-07-20T11:04:38;0.90;;;0.90;;
2111;SDS011;1062;52.538;13.400;2023-07-20T11:07:05;1.00;;;0.80;;
2111;SDS011;1062;52.538;13.400;2023-07-20T11:09:34;1.30;;;0.90;;
2111;SDS011;1062;52.538;13.400;2023-07-20T11:12:10;1.13;;;1.03;;
2111;SDS011;1062;52.538;13.400;2023-07-20T11:14:40;3.83;;;1.87;;
2111;SDS011;1062;52.538;13.400;2023-07-20T11:17:19;1.30;;;1.03;;
2111;SDS011;1062;52.538;13.400;2023-07-20T11:19:55;1.73;;;0.90;;
2111;SDS011;1062;52.538;13.400;2023-07-20T11:22:21;1.10;;;0.90;;
2111;SDS011;1062;52.538;13.400;2023-07-20T11:24:47;1.30;;;0.97;;
2111;SDS011;1062;52.538;13.400;2023-07-20T11:27:14;1.57;;;1.37;;
2111;SDS011;1062;52.538;13.400;2023-07-20T11:29:40;1.20;;;1.10;;
2111;SDS011;1062;52.538;13.400;2023-07-20T11:32:06;2.20;;;0.80;;
2111;SDS011;1062;52.538;13.400;2023-07-20T11:34:32;2.10;;;1.13;;
2111;SDS011;1062;52.538;13.400;2023-07-20T11:36:59;1.20;;;1.00;;
2111;SDS011;1062;52.538;13.400;2023-07-20T11:39:24;1.47;;;1.10;;
2111;SDS011;1062;52.538;13.400;2023-07-20T11:41:54;2.90;;;1.00;;
2111;SDS011;1062;52.538;13.400;2023-07-20T11:44:20;1.00;;;0.83;;
2111;SDS011;1062;52.538;13.400;2023-07-20T11:47:02;3.13;;;0.90;;
2111;SDS011;1062;52.538;13.400;2023-07-20T11:49:28;1.40;;;1.10;;
2111;SDS011;1062;52.538;13.400;2023-07-20T11:51:54;1.60;;;1.50;;
2111;SDS011;1062;52.538;13.400;2023-07-20T11:54:21;0.73;;;0.73;;
2111;SDS011;1062;52.538;13.400;2023-07-20T11:56:47;1.87;;;1.67;;
2111;SDS011;1062;52.538;13.400;2023-07-20T11:59:13;1.60;;;1.30;;
2111;SDS011;1062;52.538;13.400;2023-07-20T12:01:39;2.17;;;1.10;;
2111;SDS011;1062;52.538;13.400;2023-07-20T12:04:04;0.80;;;0.80;;
2111;SDS011;1062;52.538;13.400;2023-07-20T12:06:31;6.07;;;5.30;;
2111;SDS011;1062;52.538;13.400;2023-07-20T12:08:58;4.60;;;4.17;;
2111;SDS011;1062;52.538;13.400;2023-07-20T12:13:59;1.00;;;0.90;;
2111;SDS011;1062;52.538;13.400;2023-07-20T12:16:28;1.10;;;0.90;;
2111;SDS011;1062;52.538;13.400;2023-07-20T12:19:01;1.60;;;0.90;;
2111;SDS011;1062;52.538;13.400;2023-07-20T12:21:31;5.90;;;4.57;;
2111;SDS011;1062;52.538;13.400;2023-07-20T12:23:59;1.33;;;1.10;;
2111;SDS011;1062;52.538;13.400;2023-07-20T12:26:25;1.00;;;0.80;;
2111;SDS011;1062;52.538;13.400;2023-07-20T12:28:54;0.80;;;0.80;;
2111;SDS011;1062;52.538;13.400;2023-07-20T12:31:19;0.93;;;0.83;;
2111;SDS011;1062;52.538;13.400;2023-07-20T12:33:47;1.73;;;1.27;;
2111;SDS011;1062;52.538;13.400;2023-07-20T12:36:13;1.57;;;1.00;;
2111;SDS011;1062;52.538;13.400;2023-07-20T12:38:39;1.70;;;1.20;;
2111;SDS011;1062;52.538;13.400;2023-07-20T12:41:06;1.57;;;0.70;;
2111;SDS011;1062;52.538;13.400;2023-07-20T12:43:32;2.30;;;0.80;;
2111;SDS011;1062;52.538;13.400;2023-07-20T12:45:58;2.73;;;0.90;;
2111;SDS011;1062;52.538;13.400;2023-07-20T12:48:24;1.33;;;0.80;;
2111;SDS011;1062;52.538;13.400;2023-07-20T12:50:50;3.20;;;1.87;;
2111;SDS011;1062;52.538;13.400;2023-07-20T12:53:15;1.60;;;1.43;;
2111;SDS011;1062;52.538;13.400;2023-07-20T12:55:41;3.63;;;3.07;;
2111;SDS011;1062;52.538;13.400;2023-07-20T12:58:07;3.70;;;3.23;;
2111;SDS011;1062;52.538;13.400;2023-07-20T13:00:33;1.63;;;1.37;;
2111;SDS011;1062;52.538;13.400;2023-07-20T13:02:59;0.87;;;0.87;;
2111;SDS011;1062;52.538;13.400;2023-07-20T13:05:25;1.57;;;1.47;;
2111;SDS011;1062;52.538;13.400;2023-07-20T13:07:51;10.73;;;9.47;;
2111;SDS011;1062;52.538;13.400;2023-07-20T13:10:16;29.07;;;22.53;;
2111;SDS011;1062;52.538;13.400;2023-07-20T13:12:43;6.13;;;5.50;;
2111;SDS011;1062;52.538;13.400;2023-07-20T13:15:09;6.33;;;5.50;;
2111;SDS011;1062;52.538;13.400;2023-07-20T13:17:36;12.37;;;8.37;;
2111;SDS011;1062;52.538;13.400;2023-07-20T13:20:05;3.00;;;1.10;;
2111;SDS011;1062;52.538;13.400;2023-07-20T13:22:33;8.03;;;5.93;;
2111;SDS011;1062;52.538;13.400;2023-07-20T13:24:59;1.80;;;1.70;;
2111;SDS011;1062;52.538;13.400;2023-07-20T13:27:25;1.77;;;0.73;;
2111;SDS011;1062;52.538;13.400;2023-07-20T13:29:51;8.03;;;1.07;;
2111;SDS011;1062;52.538;13.400;2023-07-20T13:32:17;1.20;;;0.97;;
2111;SDS011;1062;52.538;13.400;2023-07-20T13:34:43;0.77;;;0.70;;
2111;SDS011;1062;52.538;13.400;2023-07-20T13:37:13;4.10;;;1.93;;
2111;SDS011;1062;52.538;13.400;2023-07-20T13:39:39;0.70;;;0.70;;
2111;SDS011;1062;52.538;13.400;2023-07-20T13:42:05;2.90;;;1.00;;
2111;SDS011;1062;52.538;13.400;2023-07-20T13:44:31;2.40;;;0.80;;
2111;SDS011;1062;52.538;13.400;2023-07-20T13:46:57;1.10;;;1.00;;
2111;SDS011;1062;52.538;13.400;2023-07-20T13:49:22;2.70;;;1.20;;
2111;SDS011;1062;52.538;13.400;2023-07-20T13:51:48;0.70;;;0.70;;
2111;SDS011;1062;52.538;13.400;2023-07-20T13:54:14;1.10;;;0.90;;
2111;SDS011;1062;52.538;13.400;2023-07-20T13:56:40;2.07;;;1.00;;
2111;SDS011;1062;52.538;13.400;2023-07-20T13:59:05;1.23;;;0.90;;
2111;SDS011;1062;52.538;13.400;2023-07-20T14:01:31;0.80;;;0.70;;
2111;SDS011;1062;52.538;13.400;2023-07-20T14:03:59;0.87;;;0.80;;
2111;SDS011;1062;52.538;13.400;2023-07-20T14:06:25;1.30;;;0.93;;
2111;SDS011;1062;52.538;13.400;2023-07-20T14:08:51;1.67;;;0.67;;
2111;SDS011;1062;52.538;13.400;2023-07-20T14:11:18;1.53;;;0.83;;
2111;SDS011;1062;52.538;13.400;2023-07-20T14:13:44;0.93;;;0.87;;
2111;SDS011;1062;52.538;13.400;2023-07-20T14:16:09;1.00;;;0.80;;
2111;SDS011;1062;52.538;13.400;2023-07-20T14:18:36;1.30;;;0.87;;
2111;SDS011;1062;52.538;13.400;2023-07-20T14:21:01;1.70;;;1.10;;
2111;SDS011;1062;52.538;13.400;2023-07-20T14:23:28;1.13;;;0.90;;
2111;SDS011;1062;52.538;13.400;2023-07-20T14:25:54;1.70;;;1.13;;
2111;SDS011;1062;52.538;13.400;2023-07-20T14:28:20;1.60;;;0.90;;
2111;SDS011;1062;52.538;13.400;2023-07-20T14:30:46;1.73;;;0.80;;
2111;SDS011;1062;52.538;13.400;2023-07-20T14:33:11;0.83;;;0.83;;
2111;SDS011;1062;52.538;13.400;2023-07-20T14:35:37;1.00;;;0.90;;
2111;SDS011;1062;52.538;13.400;2023-07-20T14:38:03;1.07;;;0.80;;
2111;SDS011;1062;52.538;13.400;2023-07-20T14:40:28;2.30;;;0.87;;
2111;SDS011;1062;52.538;13.400;2023-07-20T14:42:55;4.43;;;1.00;;
2111;SDS011;1062;52.538;13.400;2023-07-20T14:45:21;9.63;;;7.70;;
2111;SDS011;1062;52.538;13.400;2023-07-20T14:47:46;18.60;;;16.40;;
2111;SDS011;1062;52.538;13.400;2023-07-20T14:50:18;11.47;;;9.60;;
2111;SDS011;1062;52.538;13.400;2023-07-20T14:52:44;1.30;;;1.20;;
2111;SDS011;1062;52.538;13.400;2023-07-20T14:55:10;2.03;;;1.87;;
2111;SDS011;1062;52.538;13.400;2023-07-20T14:57:36;2.47;;;2.27;;
2111;SDS011;1062;52.538;13.400;2023-07-20T15:00:02;3.00;;;1.80;;
2111;SDS011;1062;52.538;13.400;2023-07-20T15:02:35;2.00;;;1.03;;
2111;SDS011;1062;52.538;13.400;2023-07-20T15:05:02;1.20;;;1.10;;
2111;SDS011;1062;52.538;13.400;2023-07-20T15:07:28;1.60;;;1.13;;
2111;SDS011;1062;52.538;13.400;2023-07-20T15:09:54;2.07;;;1.60;;
2111;SDS011;1062;52.538;13.400;2023-07-20T15:12:19;1.83;;;1.43;;
2111;SDS011;1062;52.538;13.400;2023-07-20T15:14:47;3.60;;;0.70;;
2111;SDS011;1062;52.538;13.400;2023-07-20T15:17:28;1.87;;;1.57;;